Long Island City, NY (11101)

12:53 PM EST on December 19, 2014 (GMT -0500)
Greenpoint | Change Station
CLOSE
Current Station
Personal Weather Station
Location: Brooklyn, NY
Elevation: 23 ft
Nearby Weather Stations

Elev 23 ft 40.73 °N, 73.95 °W | Updated 8 minutes ago

Scattered Clouds
Scattered Clouds
37.4 °F
Feels Like 37 °F
N
1.0
Wind Variable Wind from NW
Gusts 10.0 mph

Today
High -- | Low -- °F
--% Chance of Precip.
Yesterday
High -- | Low -- °F
Precip. -- in
7:15 AM 4:30 PM
Waning Crescent, 7% visible
Pressure 30.03 in
Visibility 10.0 miles
Clouds Scattered Clouds 4000 ft
Windchill 37 °F
Dew Point 22 °F
Humidity 54%
Rainfall 0.00 in
Snow Depth Not available.
UV 2 out of 12
Pollen .10 out of 12
Air Quality Not available.
Flu Activity Not available.
METAR KNYC 191751Z AUTO 29007G14KT 10SM SCT040 03/M07 A3005 RMK AO2 SLP169 T00281072 10033 20017 56010

More Conditions Fewer Conditions

Pressure 30.03 in
Visibility 10.0 miles
Clouds Scattered Clouds 4000 ft
Windchill 37 °F
Dew Point 22 °F
Humidity 54%
Rainfall 0.00 in
Snow Depth Not available.
UV 2 out of 12
Pollen .10 out of 12
Air Quality Not available.
Flu Activity Not available.
METAR KNYC 191751Z AUTO 29007G14KT 10SM SCT040 03/M07 A3005 RMK AO2 SLP169 T00281072 10033 20017 56010

More Conditions Fewer Conditions

Nowcast | as of 11:45 am EST on December 19, 2014

A 1 to 2 hour period of clearing will move across the region early this afternoon. The clearing will reach the New York City are around 2 PM. Until then...skies will remain mostly cloudy with temperatures in the upper 30s. Clouds will return late this afternoon.

×

10-Day Weather Forecast

Almanac

Astronomy

Dec. 19, 2014 Rise Set
Actual Time
Civil Twilight
Nautical Twilight
Astronomical Twilight
Moon
Length of Visible Light
Length of Day
Tomorrow will be .
, % of the Moon is Illuminated

Today's Extremes

State Highs State Lows

Community

WunderPhotos

Upload Photos

1,779,009 photos uploaded!

WunderBlogs® & News

Nearby

Air Quality

  Air Quality AQ Index Pollutant
Not available.

Snow Depth

Station Depth Elevation

Earthquake Activity

City Distance Mag. Time & Date
Minimum magnitude displayed is 2.5.

Coastal Water Temperatures

Place Temperature

Nearby Weather Stations